sensor_id;sensor_type;location;lat;lon;timestamp;temperature;humidity
18932;DHT22;9598;50.954;3.112;2024-03-08T00:03:11;6.80;99.90
18932;DHT22;9598;50.954;3.112;2024-03-08T00:08:13;6.80;99.90
18932;DHT22;9598;50.954;3.112;2024-03-08T00:13:16;6.80;99.90
18932;DHT22;9598;50.954;3.112;2024-03-08T00:18:20;6.70;99.90
18932;DHT22;9598;50.954;3.112;2024-03-08T00:23:22;6.70;99.90
18932;DHT22;9598;50.954;3.112;2024-03-08T00:28:24;6.70;99.90
18932;DHT22;9598;50.954;3.112;2024-03-08T00:33:29;6.60;99.90
18932;DHT22;9598;50.954;3.112;2024-03-08T00:38:31;6.60;99.90
18932;DHT22;9598;50.954;3.112;2024-03-08T00:43:35;6.50;99.90
18932;DHT22;9598;50.954;3.112;2024-03-08T00:48:38;6.50;99.90
18932;DHT22;9598;50.954;3.112;2024-03-08T00:53:44;6.50;99.90
18932;DHT22;9598;50.954;3.112;2024-03-08T00:58:46;6.60;99.90
18932;DHT22;9598;50.954;3.112;2024-03-08T01:03:50;6.50;99.90
18932;DHT22;9598;50.954;3.112;2024-03-08T01:08:53;6.40;99.90
18932;DHT22;9598;50.954;3.112;2024-03-08T01:13:55;6.40;99.90
18932;DHT22;9598;50.954;3.112;2024-03-08T01:18:59;6.40;99.90
18932;DHT22;9598;50.954;3.112;2024-03-08T01:24:02;6.30;99.90
18932;DHT22;9598;50.954;3.112;2024-03-08T01:29:04;6.20;99.90
18932;DHT22;9598;50.954;3.112;2024-03-08T01:34:08;6.20;99.90
18932;DHT22;9598;50.954;3.112;2024-03-08T01:39:11;6.10;99.90
18932;DHT22;9598;50.954;3.112;2024-03-08T01:44:13;6.00;99.90
18932;DHT22;9598;50.954;3.112;2024-03-08T01:49:21;5.90;99.90
18932;DHT22;9598;50.954;3.112;2024-03-08T01:54:24;5.90;99.90
18932;DHT22;9598;50.954;3.112;2024-03-08T01:59:27;5.90;99.90
18932;DHT22;9598;50.954;3.112;2024-03-08T02:04:30;5.80;99.90
18932;DHT22;9598;50.954;3.112;2024-03-08T02:09:33;5.80;99.90
18932;DHT22;9598;50.954;3.112;2024-03-08T02:14:35;5.70;99.90
18932;DHT22;9598;50.954;3.112;2024-03-08T02:19:39;5.70;99.90
18932;DHT22;9598;50.954;3.112;2024-03-08T02:24:43;5.60;99.90
18932;DHT22;9598;50.954;3.112;2024-03-08T02:29:46;5.50;99.90
18932;DHT22;9598;50.954;3.112;2024-03-08T02:34:49;5.50;99.90
18932;DHT22;9598;50.954;3.112;2024-03-08T02:39:53;5.50;99.90
18932;DHT22;9598;50.954;3.112;2024-03-08T02:44:55;5.50;99.90
18932;DHT22;9598;50.954;3.112;2024-03-08T02:49:59;5.40;99.90
18932;DHT22;9598;50.954;3.112;2024-03-08T02:55:04;5.40;99.90
18932;DHT22;9598;50.954;3.112;2024-03-08T03:00:08;5.40;99.90
18932;DHT22;9598;50.954;3.112;2024-03-08T03:05:11;5.40;99.90
18932;DHT22;9598;50.954;3.112;2024-03-08T03:10:16;5.30;99.90
18932;DHT22;9598;50.954;3.112;2024-03-08T03:15:20;5.30;99.90
18932;DHT22;9598;50.954;3.112;2024-03-08T03:20:23;5.30;99.90
18932;DHT22;9598;50.954;3.112;2024-03-08T03:25:28;5.40;99.90
18932;DHT22;9598;50.954;3.112;2024-03-08T03:30:34;5.30;99.90
18932;DHT22;9598;50.954;3.112;2024-03-08T03:35:38;5.30;99.90
18932;DHT22;9598;50.954;3.112;2024-03-08T03:40:43;5.20;99.90
18932;DHT22;9598;50.954;3.112;2024-03-08T03:45:46;5.20;99.90
18932;DHT22;9598;50.954;3.112;2024-03-08T03:50:49;5.10;99.90
18932;DHT22;9598;50.954;3.112;2024-03-08T03:55:53;5.10;99.90
18932;DHT22;9598;50.954;3.112;2024-03-08T04:00:55;5.00;99.90
18932;DHT22;9598;50.954;3.112;2024-03-08T04:05:57;5.00;99.90
18932;DHT22;9598;50.954;3.112;2024-03-08T04:11:01;5.00;99.90
18932;DHT22;9598;50.954;3.112;2024-03-08T04:16:05;5.00;99.90
18932;DHT22;9598;50.954;3.112;2024-03-08T04:21:09;5.00;99.90
18932;DHT22;9598;50.954;3.112;2024-03-08T04:26:13;5.00;99.90
18932;DHT22;9598;50.954;3.112;2024-03-08T04:31:16;4.90;99.90
18932;DHT22;9598;50.954;3.112;2024-03-08T04:36:18;4.90;99.90
18932;DHT22;9598;50.954;3.112;2024-03-08T04:41:22;4.80;99.90
18932;DHT22;9598;50.954;3.112;2024-03-08T04:46:24;4.80;99.90
18932;DHT22;9598;50.954;3.112;2024-03-08T04:51:26;4.80;99.90
18932;DHT22;9598;50.954;3.112;2024-03-08T04:56:30;4.80;99.90
18932;DHT22;9598;50.954;3.112;2024-03-08T05:01:32;4.70;99.90
18932;DHT22;9598;50.954;3.112;2024-03-08T05:06:34;4.70;99.90
18932;DHT22;9598;50.954;3.112;2024-03-08T05:11:39;4.60;99.90
18932;DHT22;9598;50.954;3.112;2024-03-08T05:16:41;4.60;99.90
18932;DHT22;9598;50.954;3.112;2024-03-08T05:21:43;4.60;99.90
18932;DHT22;9598;50.954;3.112;2024-03-08T05:26:47;4.60;99.90
18932;DHT22;9598;50.954;3.112;2024-03-08T05:31:50;4.60;99.90
18932;DHT22;9598;50.954;3.112;2024-03-08T05:36:53;4.60;99.90
18932;DHT22;9598;50.954;3.112;2024-03-08T05:41:57;4.60;99.90
18932;DHT22;9598;50.954;3.112;2024-03-08T05:46:59;4.50;99.90
18932;DHT22;9598;50.954;3.112;2024-03-08T05:52:02;4.40;99.90
18932;DHT22;9598;50.954;3.112;2024-03-08T05:57:06;4.40;99.90
18932;DHT22;9598;50.954;3.112;2024-03-08T06:02:08;4.30;99.90
18932;DHT22;9598;50.954;3.112;2024-03-08T06:07:11;4.20;99.90
18932;DHT22;9598;50.954;3.112;2024-03-08T06:12:14;4.20;99.90
18932;DHT22;9598;50.954;3.112;2024-03-08T06:17:20;4.20;99.90
18932;DHT22;9598;50.954;3.112;2024-03-08T06:22:26;4.20;99.90
18932;DHT22;9598;50.954;3.112;2024-03-08T06:27:30;4.10;99.90
18932;DHT22;9598;50.954;3.112;2024-03-08T06:32:34;4.10;99.90
18932;DHT22;9598;50.954;3.112;2024-03-08T06:37:36;4.10;99.90
18932;DHT22;9598;50.954;3.112;2024-03-08T06:42:40;4.00;99.90
18932;DHT22;9598;50.954;3.112;2024-03-08T06:47:42;4.00;99.90
18932;DHT22;9598;50.954;3.112;2024-03-08T06:52:44;4.00;99.90
18932;DHT22;9598;50.954;3.112;2024-03-08T06:57:53;4.10;99.90
18932;DHT22;9598;50.954;3.112;2024-03-08T07:02:55;4.10;99.90
18932;DHT22;9598;50.954;3.112;2024-03-08T07:08:01;4.10;99.90
18932;DHT22;9598;50.954;3.112;2024-03-08T07:13:05;4.20;99.90
18932;DHT22;9598;50.954;3.112;2024-03-08T07:18:08;4.20;99.90
18932;DHT22;9598;50.954;3.112;2024-03-08T07:23:15;4.30;99.90
18932;DHT22;9598;50.954;3.112;2024-03-08T07:28:38;4.40;99.90
18932;DHT22;9598;50.954;3.112;2024-03-08T07:33:41;4.40;99.90
18932;DHT22;9598;50.954;3.112;2024-03-08T07:38:44;4.50;99.90
18932;DHT22;9598;50.954;3.112;2024-03-08T07:43:49;4.60;99.90
18932;DHT22;9598;50.954;3.112;2024-03-08T07:48:51;4.70;99.90
18932;DHT22;9598;50.954;3.112;2024-03-08T07:53:53;4.80;99.90
18932;DHT22;9598;50.954;3.112;2024-03-08T07:58:57;4.90;99.90
18932;DHT22;9598;50.954;3.112;2024-03-08T08:04:00;5.00;99.90
18932;DHT22;9598;50.954;3.112;2024-03-08T08:09:03;5.10;99.90
18932;DHT22;9598;50.954;3.112;2024-03-08T08:14:07;5.20;99.90
18932;DHT22;9598;50.954;3.112;2024-03-08T08:19:10;5.30;99.90
18932;DHT22;9598;50.954;3.112;2024-03-08T08:24:13;5.40;99.90
18932;DHT22;9598;50.954;3.112;2024-03-08T08:29:16;5.50;99.90
18932;DHT22;9598;50.954;3.112;2024-03-08T08:34:19;5.60;99.90
18932;DHT22;9598;50.954;3.112;2024-03-08T08:39:24;5.80;99.90
18932;DHT22;9598;50.954;3.112;2024-03-08T08:44:28;5.80;99.90
18932;DHT22;9598;50.954;3.112;2024-03-08T08:49:32;6.00;99.90
18932;DHT22;9598;50.954;3.112;2024-03-08T08:54:34;6.10;99.90
18932;DHT22;9598;50.954;3.112;2024-03-08T08:59:38;6.10;99.90
18932;DHT22;9598;50.954;3.112;2024-03-08T09:04:41;6.30;99.90
18932;DHT22;9598;50.954;3.112;2024-03-08T09:09:44;6.30;99.90
18932;DHT22;9598;50.954;3.112;2024-03-08T09:14:49;6.40;99.90
18932;DHT22;9598;50.954;3.112;2024-03-08T09:19:51;6.50;99.90
18932;DHT22;9598;50.954;3.112;2024-03-08T09:24:53;6.70;99.90
18932;DHT22;9598;50.954;3.112;2024-03-08T09:29:57;6.90;99.90
18932;DHT22;9598;50.954;3.112;2024-03-08T09:35:00;7.20;99.90
18932;DHT22;9598;50.954;3.112;2024-03-08T09:40:03;7.30;99.90
18932;DHT22;9598;50.954;3.112;2024-03-08T09:45:12;7.50;99.90
18932;DHT22;9598;50.954;3.112;2024-03-08T09:50:17;7.60;99.90
18932;DHT22;9598;50.954;3.112;2024-03-08T09:55:21;7.70;99.90
18932;DHT22;9598;50.954;3.112;2024-03-08T10:00:25;8.00;99.90
18932;DHT22;9598;50.954;3.112;2024-03-08T10:05:28;8.20;99.90
18932;DHT22;9598;50.954;3.112;2024-03-08T10:10:30;8.30;99.90
18932;DHT22;9598;50.954;3.112;2024-03-08T10:15:34;8.40;99.90
18932;DHT22;9598;50.954;3.112;2024-03-08T10:20:36;8.50;99.90
18932;DHT22;9598;50.954;3.112;2024-03-08T10:25:38;8.70;99.90
18932;DHT22;9598;50.954;3.112;2024-03-08T10:30:48;8.70;99.90
18932;DHT22;9598;50.954;3.112;2024-03-08T10:35:50;8.90;99.90
18932;DHT22;9598;50.954;3.112;2024-03-08T10:40:53;9.00;99.90
18932;DHT22;9598;50.954;3.112;2024-03-08T10:46:06;9.10;99.90
18932;DHT22;9598;50.954;3.112;2024-03-08T10:51:12;9.10;99.90
18932;DHT22;9598;50.954;3.112;2024-03-08T10:56:15;9.20;99.90
18932;DHT22;9598;50.954;3.112;2024-03-08T11:01:18;9.40;99.90
18932;DHT22;9598;50.954;3.112;2024-03-08T11:06:23;9.50;99.90
18932;DHT22;9598;50.954;3.112;2024-03-08T11:11:33;9.50;99.90
18932;DHT22;9598;50.954;3.112;2024-03-08T11:16:43;9.70;99.90
18932;DHT22;9598;50.954;3.112;2024-03-08T11:21:46;9.90;99.90
18932;DHT22;9598;50.954;3.112;2024-03-08T11:26:48;9.80;99.90
18932;DHT22;9598;50.954;3.112;2024-03-08T11:31:53;9.90;99.90
18932;DHT22;9598;50.954;3.112;2024-03-08T11:37:11;10.10;99.90
18932;DHT22;9598;50.954;3.112;2024-03-08T11:42:14;10.20;99.90
18932;DHT22;9598;50.954;3.112;2024-03-08T11:47:18;10.40;99.90
18932;DHT22;9598;50.954;3.112;2024-03-08T11:52:22;10.50;99.90
18932;DHT22;9598;50.954;3.112;2024-03-08T11:57:27;10.50;99.90
18932;DHT22;9598;50.954;3.112;2024-03-08T12:02:32;10.60;99.90
18932;DHT22;9598;50.954;3.112;2024-03-08T12:07:35;10.90;99.90
18932;DHT22;9598;50.954;3.112;2024-03-08T12:12:39;10.80;99.90
18932;DHT22;9598;50.954;3.112;2024-03-08T12:17:44;10.90;99.90
18932;DHT22;9598;50.954;3.112;2024-03-08T12:22:49;11.00;99.90
18932;DHT22;9598;50.954;3.112;2024-03-08T12:27:53;11.10;99.90
18932;DHT22;9598;50.954;3.112;2024-03-08T12:33:00;11.20;99.90
18932;DHT22;9598;50.954;3.112;2024-03-08T12:38:03;11.30;99.90
18932;DHT22;9598;50.954;3.112;2024-03-08T12:43:06;11.50;99.90
18932;DHT22;9598;50.954;3.112;2024-03-08T12:48:14;11.50;99.90
18932;DHT22;9598;50.954;3.112;2024-03-08T12:53:16;11.60;99.90
18932;DHT22;9598;50.954;3.112;2024-03-08T12:58:19;11.60;99.90
18932;DHT22;9598;50.954;3.112;2024-03-08T13:03:23;11.60;99.90
18932;DHT22;9598;50.954;3.112;2024-03-08T13:08:25;11.80;99.90
18932;DHT22;9598;50.954;3.112;2024-03-08T13:13:30;11.80;99.90
18932;DHT22;9598;50.954;3.112;2024-03-08T13:18:37;11.90;99.90
18932;DHT22;9598;50.954;3.112;2024-03-08T13:23:41;11.90;99.90
18932;DHT22;9598;50.954;3.112;2024-03-08T13:28:46;12.00;99.90
18932;DHT22;9598;50.954;3.112;2024-03-08T13:33:50;12.10;99.90
18932;DHT22;9598;50.954;3.112;2024-03-08T13:38:59;12.20;99.90
18932;DHT22;9598;50.954;3.112;2024-03-08T13:44:01;12.30;99.90
18932;DHT22;9598;50.954;3.112;2024-03-08T13:49:06;12.50;99.90
18932;DHT22;9598;50.954;3.112;2024-03-08T13:54:10;12.50;99.90
18932;DHT22;9598;50.954;3.112;2024-03-08T13:59:12;12.50;99.90
18932;DHT22;9598;50.954;3.112;2024-03-08T14:04:16;12.50;99.90
18932;DHT22;9598;50.954;3.112;2024-03-08T14:09:19;12.40;99.90
18932;DHT22;9598;50.954;3.112;2024-03-08T14:14:22;12.40;99.90
18932;DHT22;9598;50.954;3.112;2024-03-08T14:19:26;12.50;99.90
18932;DHT22;9598;50.954;3.112;2024-03-08T14:24:28;12.50;99.90
18932;DHT22;9598;50.954;3.112;2024-03-08T14:29:31;12.50;99.90
18932;DHT22;9598;50.954;3.112;2024-03-08T14:34:35;12.50;99.90
18932;DHT22;9598;50.954;3.112;2024-03-08T14:39:37;12.50;99.90
18932;DHT22;9598;50.954;3.112;2024-03-08T14:44:39;12.60;99.90
18932;DHT22;9598;50.954;3.112;2024-03-08T14:49:43;12.60;99.90
18932;DHT22;9598;50.954;3.112;2024-03-08T14:54:45;12.60;99.90
18932;DHT22;9598;50.954;3.112;2024-03-08T14:59:49;12.60;99.90
18932;DHT22;9598;50.954;3.112;2024-03-08T15:04:53;12.70;99.90
18932;DHT22;9598;50.954;3.112;2024-03-08T15:09:59;12.70;99.90
18932;DHT22;9598;50.954;3.112;2024-03-08T15:15:02;12.70;99.90
18932;DHT22;9598;50.954;3.112;2024-03-08T15:20:10;12.70;99.90
18932;DHT22;9598;50.954;3.112;2024-03-08T15:25:16;12.70;99.90
18932;DHT22;9598;50.954;3.112;2024-03-08T15:30:22;12.80;99.90
18932;DHT22;9598;50.954;3.112;2024-03-08T15:35:28;12.70;99.90
18932;DHT22;9598;50.954;3.112;2024-03-08T15:40:32;12.70;99.90
18932;DHT22;9598;50.954;3.112;2024-03-08T15:45:35;12.70;99.90
18932;DHT22;9598;50.954;3.112;2024-03-08T15:50:40;12.70;99.90
18932;DHT22;9598;50.954;3.112;2024-03-08T15:55:42;12.70;99.90
18932;DHT22;9598;50.954;3.112;2024-03-08T16:00:47;12.70;99.90
18932;DHT22;9598;50.954;3.112;2024-03-08T16:05:51;12.70;99.90
18932;DHT22;9598;50.954;3.112;2024-03-08T16:10:54;12.60;99.90
18932;DHT22;9598;50.954;3.112;2024-03-08T16:15:57;12.60;99.90
18932;DHT22;9598;50.954;3.112;2024-03-08T16:21:01;12.60;99.90
18932;DHT22;9598;50.954;3.112;2024-03-08T16:26:04;12.50;99.90
18932;DHT22;9598;50.954;3.112;2024-03-08T16:31:09;12.50;99.90
18932;DHT22;9598;50.954;3.112;2024-03-08T16:36:16;12.40;99.90
18932;DHT22;9598;50.954;3.112;2024-03-08T16:41:18;12.40;99.90
18932;DHT22;9598;50.954;3.112;2024-03-08T16:46:22;12.30;99.90
18932;DHT22;9598;50.954;3.112;2024-03-08T16:51:26;12.30;99.90
18932;DHT22;9598;50.954;3.112;2024-03-08T16:56:28;12.30;99.90
18932;DHT22;9598;50.954;3.112;2024-03-08T17:01:31;12.20;99.90
18932;DHT22;9598;50.954;3.112;2024-03-08T17:06:35;12.10;99.90
18932;DHT22;9598;50.954;3.112;2024-03-08T17:11:38;12.00;99.90
18932;DHT22;9598;50.954;3.112;2024-03-08T17:16:41;11.90;99.90
18932;DHT22;9598;50.954;3.112;2024-03-08T17:21:44;11.90;99.90
18932;DHT22;9598;50.954;3.112;2024-03-08T17:26:46;11.80;99.90
18932;DHT22;9598;50.954;3.112;2024-03-08T17:31:49;11.80;99.90
18932;DHT22;9598;50.954;3.112;2024-03-08T17:36:53;11.70;99.90
18932;DHT22;9598;50.954;3.112;2024-03-08T17:42:01;11.60;99.90
18932;DHT22;9598;50.954;3.112;2024-03-08T17:47:04;11.60;99.90
18932;DHT22;9598;50.954;3.112;2024-03-08T17:52:07;11.50;99.90
18932;DHT22;9598;50.954;3.112;2024-03-08T17:57:10;11.40;99.90
18932;DHT22;9598;50.954;3.112;2024-03-08T18:02:12;11.30;99.90
18932;DHT22;9598;50.954;3.112;2024-03-08T18:07:16;11.20;99.90
18932;DHT22;9598;50.954;3.112;2024-03-08T18:12:18;11.20;99.90
18932;DHT22;9598;50.954;3.112;2024-03-08T18:17:21;11.10;99.90
18932;DHT22;9598;50.954;3.112;2024-03-08T18:22:24;11.00;99.90
18932;DHT22;9598;50.954;3.112;2024-03-08T18:27:26;10.90;99.90
18932;DHT22;9598;50.954;3.112;2024-03-08T18:32:29;10.90;99.90
18932;DHT22;9598;50.954;3.112;2024-03-08T18:37:33;10.70;99.90
18932;DHT22;9598;50.954;3.112;2024-03-08T18:42:36;10.80;99.90
18932;DHT22;9598;50.954;3.112;2024-03-08T18:47:40;10.70;99.90
18932;DHT22;9598;50.954;3.112;2024-03-08T18:52:44;10.50;99.90
18932;DHT22;9598;50.954;3.112;2024-03-08T18:57:50;10.50;99.90
18932;DHT22;9598;50.954;3.112;2024-03-08T19:02:54;10.50;99.90
18932;DHT22;9598;50.954;3.112;2024-03-08T19:08:00;10.40;99.90
18932;DHT22;9598;50.954;3.112;2024-03-08T19:13:08;10.40;99.90
18932;DHT22;9598;50.954;3.112;2024-03-08T19:18:12;10.30;99.90
18932;DHT22;9598;50.954;3.112;2024-03-08T19:23:16;10.30;99.90
18932;DHT22;9598;50.954;3.112;2024-03-08T19:28:18;10.20;99.90
18932;DHT22;9598;50.954;3.112;2024-03-08T19:33:23;10.20;99.90
18932;DHT22;9598;50.954;3.112;2024-03-08T19:38:26;10.10;99.90
18932;DHT22;9598;50.954;3.112;2024-03-08T19:43:32;10.00;99.90
18932;DHT22;9598;50.954;3.112;2024-03-08T19:48:35;10.00;99.90
18932;DHT22;9598;50.954;3.112;2024-03-08T19:53:39;10.00;99.90
18932;DHT22;9598;50.954;3.112;2024-03-08T19:58:41;10.00;99.90
18932;DHT22;9598;50.954;3.112;2024-03-08T20:03:43;10.00;99.90
18932;DHT22;9598;50.954;3.112;2024-03-08T20:08:48;9.90;99.90
18932;DHT22;9598;50.954;3.112;2024-03-08T20:13:50;9.80;99.90
18932;DHT22;9598;50.954;3.112;2024-03-08T20:18:52;9.80;99.90
18932;DHT22;9598;50.954;3.112;2024-03-08T20:23:56;9.70;99.90
18932;DHT22;9598;50.954;3.112;2024-03-08T20:28:58;9.70;99.90
18932;DHT22;9598;50.954;3.112;2024-03-08T20:34:01;9.70;99.90
18932;DHT22;9598;50.954;3.112;2024-03-08T20:39:05;9.60;99.90
18932;DHT22;9598;50.954;3.112;2024-03-08T20:44:09;9.60;99.90
18932;DHT22;9598;50.954;3.112;2024-03-08T20:49:12;9.60;99.90
18932;DHT22;9598;50.954;3.112;2024-03-08T20:54:16;9.60;99.90
18932;DHT22;9598;50.954;3.112;2024-03-08T20:59:19;9.70;99.90
18932;DHT22;9598;50.954;3.112;2024-03-08T21:04:21;9.60;99.90
18932;DHT22;9598;50.954;3.112;2024-03-08T21:09:25;9.60;99.90
18932;DHT22;9598;50.954;3.112;2024-03-08T21:14:31;9.70;99.90
18932;DHT22;9598;50.954;3.112;2024-03-08T21:19:34;9.70;99.90
18932;DHT22;9598;50.954;3.112;2024-03-08T21:24:38;9.70;99.90
18932;DHT22;9598;50.954;3.112;2024-03-08T21:29:40;9.70;99.90
18932;DHT22;9598;50.954;3.112;2024-03-08T21:34:42;9.70;99.90
18932;DHT22;9598;50.954;3.112;2024-03-08T21:39:46;9.70;99.90
18932;DHT22;9598;50.954;3.112;2024-03-08T21:44:48;9.70;99.90
18932;DHT22;9598;50.954;3.112;2024-03-08T21:49:50;9.80;99.90
18932;DHT22;9598;50.954;3.112;2024-03-08T21:54:57;9.70;99.90
18932;DHT22;9598;50.954;3.112;2024-03-08T21:59:59;9.70;99.90
18932;DHT22;9598;50.954;3.112;2024-03-08T22:05:01;9.70;99.90
18932;DHT22;9598;50.954;3.112;2024-03-08T22:10:06;9.80;99.90
18932;DHT22;9598;50.954;3.112;2024-03-08T22:15:09;9.80;99.90
18932;DHT22;9598;50.954;3.112;2024-03-08T22:20:12;9.90;99.90
18932;DHT22;9598;50.954;3.112;2024-03-08T22:25:21;9.90;99.90
18932;DHT22;9598;50.954;3.112;2024-03-08T22:30:24;10.00;99.90
18932;DHT22;9598;50.954;3.112;2024-03-08T22:35:26;10.00;99.90
18932;DHT22;9598;50.954;3.112;2024-03-08T22:40:30;10.00;99.90
18932;DHT22;9598;50.954;3.112;2024-03-08T22:45:32;10.00;99.90
18932;DHT22;9598;50.954;3.112;2024-03-08T22:50:35;10.00;99.90
18932;DHT22;9598;50.954;3.112;2024-03-08T22:55:40;10.10;99.90
18932;DHT22;9598;50.954;3.112;2024-03-08T23:00:42;10.10;99.90
18932;DHT22;9598;50.954;3.112;2024-03-08T23:05:57;10.10;99.90
18932;DHT22;9598;50.954;3.112;2024-03-08T23:11:01;10.20;99.90
18932;DHT22;9598;50.954;3.112;2024-03-08T23:16:05;10.20;99.90
18932;DHT22;9598;50.954;3.112;2024-03-08T23:21:08;10.20;99.90
18932;DHT22;9598;50.954;3.112;2024-03-08T23:26:12;10.20;99.90
18932;DHT22;9598;50.954;3.112;2024-03-08T23:31:16;10.30;99.90
18932;DHT22;9598;50.954;3.112;2024-03-08T23:36:18;10.30;99.90
18932;DHT22;9598;50.954;3.112;2024-03-08T23:41:22;10.30;99.90
18932;DHT22;9598;50.954;3.112;2024-03-08T23:46:25;10.30;99.90
18932;DHT22;9598;50.954;3.112;2024-03-08T23:51:27;10.30;99.90
18932;DHT22;9598;50.954;3.112;2024-03-08T23:56:33;10.30;99.90
